createdAt,value
2018-11-26T00:00:33.713Z,28.83
2018-11-26T00:03:03.430Z,30.20
2018-11-26T00:05:33.122Z,27.60
2018-11-26T00:08:02.917Z,28.87
2018-11-26T00:10:43.728Z,23.60
2018-11-26T00:13:13.958Z,25.80
2018-11-26T00:15:43.671Z,25.43
2018-11-26T00:18:13.531Z,24.53
2018-11-26T00:20:43.200Z,24.70
2018-11-26T00:23:12.922Z,26.50
2018-11-26T00:25:42.808Z,21.40
2018-11-26T00:28:12.627Z,24.30
2018-11-26T00:30:42.363Z,24.87
2018-11-26T00:33:12.536Z,21.93
2018-11-26T00:35:42.612Z,19.07
2018-11-26T00:38:12.957Z,27.23
2018-11-26T00:40:43.112Z,25.93
2018-11-26T00:43:13.213Z,23.60
2018-11-26T00:45:43.150Z,25.53
2018-11-26T00:48:13.822Z,23.40
2018-11-26T00:50:44.111Z,25.57
2018-11-26T00:53:14.347Z,23.33
2018-11-26T00:55:44.617Z,24.00
2018-11-26T00:58:14.687Z,21.83
2018-11-26T01:00:45.464Z,22.53
2018-11-26T01:03:15.830Z,25.10
2018-11-26T01:05:46.280Z,24.50
2018-11-26T01:08:16.756Z,25.00
2018-11-26T01:10:47.319Z,23.57
2018-11-26T01:13:17.659Z,22.40
2018-11-26T01:15:48.010Z,24.90
2018-11-26T01:18:18.317Z,26.53
2018-11-26T01:20:48.557Z,25.33
2018-11-26T01:23:19.553Z,29.80
2018-11-26T01:25:50.030Z,24.80
2018-11-26T01:28:20.337Z,34.00
2018-11-26T01:30:50.527Z,24.57
2018-11-26T01:33:20.689Z,33.03
2018-11-26T01:35:51.102Z,30.63
2018-11-26T01:38:22.201Z,29.87
2018-11-26T01:40:53.092Z,25.67
2018-11-26T01:43:23.250Z,21.33
2018-11-26T01:45:53.527Z,22.47
2018-11-26T01:48:23.968Z,29.33
2018-11-26T01:50:54.121Z,23.10
2018-11-26T01:53:24.300Z,25.63
2018-11-26T01:55:55.292Z,21.87
2018-11-26T01:58:26.441Z,25.13
2018-11-26T02:00:56.691Z,26.53
2018-11-26T02:03:27.075Z,23.90
2018-11-26T02:05:58.311Z,25.17
2018-11-26T02:08:29.698Z,25.13
2018-11-26T02:11:00.060Z,27.80
2018-11-26T02:13:30.206Z,40.27
2018-11-26T02:16:01.936Z,23.30
2018-11-26T02:18:32.366Z,23.87
2018-11-26T02:21:02.621Z,24.90
2018-11-26T02:23:32.964Z,20.13
2018-11-26T02:26:08.804Z,27.40
2018-11-26T02:28:39.261Z,23.30
2018-11-26T02:31:09.494Z,32.33
2018-11-26T02:33:39.742Z,25.83
2018-11-26T02:36:10.021Z,24.50
2018-11-26T02:38:40.244Z,22.60
2018-11-26T02:41:11.169Z,23.07
2018-11-26T02:43:41.548Z,20.70
2018-11-26T02:46:12.630Z,24.90
2018-11-26T02:48:42.979Z,17.40
2018-11-26T02:51:13.170Z,19.33
2018-11-26T02:53:43.218Z,21.30
2018-11-26T02:56:13.559Z,18.80
2018-11-26T02:58:44.084Z,20.33
2018-11-26T03:01:14.344Z,26.33
2018-11-26T03:03:44.052Z,18.27
2018-11-26T03:06:13.893Z,17.07
2018-11-26T03:08:43.735Z,19.83
2018-11-26T03:11:13.503Z,17.67
2018-11-26T03:13:43.755Z,19.40
2018-11-26T03:16:13.992Z,17.77
2018-11-26T03:18:45.148Z,18.47
2018-11-26T03:21:15.279Z,22.03
2018-11-26T03:23:46.279Z,20.40
2018-11-26T03:26:16.911Z,18.90
2018-11-26T03:28:47.419Z,20.77
2018-11-26T03:31:17.494Z,18.57
2018-11-26T03:33:48.045Z,21.30
2018-11-26T03:36:18.519Z,23.83
2018-11-26T03:38:56.191Z,24.33
2018-11-26T03:41:26.713Z,22.30
2018-11-26T03:43:56.812Z,22.33
2018-11-26T03:46:27.144Z,23.07
2018-11-26T03:48:58.414Z,19.03
2018-11-26T03:51:28.709Z,19.47
2018-11-26T03:53:58.534Z,18.70
2018-11-26T03:56:28.916Z,26.43
2018-11-26T03:58:59.525Z,25.23
2018-11-26T04:01:29.606Z,18.93
2018-11-26T04:04:00.630Z,21.70
2018-11-26T04:06:30.925Z,18.07
2018-11-26T04:09:00.979Z,20.63
2018-11-26T04:11:31.091Z,22.47
2018-11-26T04:14:01.560Z,26.03
2018-11-26T04:16:31.732Z,21.10
2018-11-26T04:19:01.662Z,22.63
2018-11-26T04:21:31.759Z,22.23
2018-11-26T04:24:01.685Z,22.20
2018-11-26T04:26:31.680Z,24.90
2018-11-26T04:29:01.845Z,21.20
2018-11-26T04:31:32.123Z,25.90
2018-11-26T04:34:02.425Z,23.43
2018-11-26T04:36:32.468Z,23.17
2018-11-26T04:39:02.729Z,24.13
2018-11-26T04:41:32.943Z,26.57
2018-11-26T04:44:04.078Z,25.77
2018-11-26T04:46:34.134Z,23.73
2018-11-26T04:49:04.483Z,25.30
2018-11-26T04:51:34.804Z,27.00
2018-11-26T04:54:05.026Z,24.07
2018-11-26T04:56:35.002Z,23.70
2018-11-26T04:59:04.961Z,27.00
2018-11-26T05:01:36.972Z,30.00
2018-11-26T05:04:07.376Z,27.63
2018-11-26T05:06:37.583Z,22.33
2018-11-26T05:09:10.043Z,21.93
2018-11-26T05:11:40.692Z,21.27
2018-11-26T05:14:10.727Z,24.20
2018-11-26T05:16:40.856Z,24.30
2018-11-26T05:19:11.901Z,26.50
2018-11-26T05:21:42.070Z,24.40
2018-11-26T05:24:12.346Z,27.10
2018-11-26T05:26:42.550Z,24.33
2018-11-26T05:29:12.530Z,22.20
2018-11-26T05:31:44.676Z,27.77
2018-11-26T05:34:14.644Z,18.20
2018-11-26T05:36:44.736Z,21.17
2018-11-26T05:39:14.901Z,18.20
2018-11-26T05:41:49.881Z,20.60
2018-11-26T05:44:20.052Z,32.90
2018-11-26T05:46:49.769Z,20.03
2018-11-26T05:49:19.680Z,19.07
2018-11-26T05:51:49.888Z,20.50
2018-11-26T05:54:20.060Z,25.17
2018-11-26T05:56:50.252Z,22.67
2018-11-26T05:59:20.505Z,18.10
2018-11-26T06:01:51.488Z,22.77
2018-11-26T06:04:21.448Z,23.93
2018-11-26T06:06:51.753Z,26.77
2018-11-26T06:09:22.030Z,16.87
2018-11-26T06:11:52.371Z,20.07
2018-11-26T06:14:25.288Z,27.20
2018-11-26T06:16:55.805Z,16.73
2018-11-26T06:19:27.446Z,18.57
2018-11-26T06:21:57.549Z,16.83
2018-11-26T06:24:27.329Z,17.10
2018-11-26T06:26:57.131Z,23.70
2018-11-26T06:29:26.761Z,17.13
2018-11-26T06:31:56.483Z,17.27
2018-11-26T06:34:26.239Z,15.70
2018-11-26T06:36:55.962Z,16.27
2018-11-26T06:39:25.716Z,20.80
2018-11-26T06:41:56.829Z,18.70
2018-11-26T06:44:27.237Z,18.90
2018-11-26T06:46:57.761Z,21.77
2018-11-26T06:49:28.318Z,20.20
2018-11-26T06:51:58.672Z,26.10
2018-11-26T06:54:28.826Z,27.43
2018-11-26T06:56:58.883Z,21.03
2018-11-26T06:59:29.277Z,26.37
2018-11-26T07:01:59.431Z,29.63
2018-11-26T07:04:29.632Z,19.40
2018-11-26T07:06:59.331Z,28.33
2018-11-26T07:09:31.197Z,34.57
2018-11-26T07:12:00.971Z,28.03
2018-11-26T07:14:30.835Z,20.87
2018-11-26T07:17:00.765Z,27.63
2018-11-26T07:19:30.458Z,31.90
2018-11-26T07:22:00.266Z,30.77
2018-11-26T07:24:29.970Z,27.23
2018-11-26T07:26:59.754Z,26.80
2018-11-26T07:29:29.410Z,28.93
2018-11-26T07:31:59.265Z,29.53
2018-11-26T07:34:29.031Z,26.27
2018-11-26T07:36:58.855Z,28.93
2018-11-26T07:39:28.556Z,29.73
2018-11-26T07:41:58.275Z,22.33
2018-11-26T07:44:28.054Z,29.67
2018-11-26T07:46:57.850Z,28.50
2018-11-26T07:49:27.626Z,20.83
2018-11-26T07:51:57.357Z,26.07
2018-11-26T07:54:27.017Z,24.37
2018-11-26T07:56:57.014Z,29.23
2018-11-26T07:59:27.141Z,25.30
2018-11-26T08:01:58.024Z,28.20
2018-11-26T08:04:28.253Z,24.83
2018-11-26T08:06:58.302Z,22.93
2018-11-26T08:09:28.023Z,29.63
2018-11-26T08:11:58.056Z,30.93
2018-11-26T08:14:28.641Z,27.83
2018-11-26T08:16:58.917Z,24.80
2018-11-26T08:19:29.045Z,30.53
2018-11-26T08:22:01.529Z,31.47
2018-11-26T08:24:31.585Z,35.60
2018-11-26T08:27:01.756Z,34.17
2018-11-26T08:29:31.854Z,46.07
2018-11-26T08:32:01.927Z,47.60
2018-11-26T08:34:32.326Z,41.93
2018-11-26T08:37:10.587Z,39.87
2018-11-26T08:39:45.112Z,35.33
2018-11-26T08:42:20.336Z,42.17
2018-11-26T08:44:55.765Z,33.97
2018-11-26T08:47:31.035Z,45.20
2018-11-26T08:50:01.224Z,35.53
2018-11-26T08:52:31.421Z,32.50
2018-11-26T08:55:01.637Z,36.03
2018-11-26T08:57:31.609Z,26.33
2018-11-26T09:00:01.694Z,34.23
2018-11-26T09:02:32.876Z,28.60
2018-11-26T09:05:07.630Z,27.67
2018-11-26T09:07:37.821Z,39.07
2018-11-26T09:10:08.596Z,38.80
2018-11-26T09:12:39.941Z,33.80
2018-11-26T09:15:11.868Z,36.90
2018-11-26T09:17:41.928Z,32.07
2018-11-26T09:20:13.133Z,37.23
2018-11-26T09:22:43.758Z,40.87
2018-11-26T09:25:14.159Z,37.83
2018-11-26T09:27:44.243Z,32.20
2018-11-26T09:30:16.053Z,35.87
2018-11-26T09:32:46.341Z,42.27
2018-11-26T09:35:17.919Z,52.90
2018-11-26T09:37:47.979Z,40.00
2018-11-26T09:40:18.558Z,50.63
2018-11-26T09:42:48.407Z,55.27
2018-11-26T09:45:19.998Z,50.33
2018-11-26T09:47:50.444Z,54.40
2018-11-26T09:50:22.649Z,59.33
2018-11-26T09:52:52.766Z,59.90
2018-11-26T09:55:23.215Z,54.80
2018-11-26T09:57:53.330Z,55.40
2018-11-26T10:00:23.503Z,57.67
2018-11-26T10:02:54.058Z,66.97
2018-11-26T10:05:25.092Z,63.07
2018-11-26T10:07:55.290Z,59.70
2018-11-26T10:10:25.491Z,68.10
2018-11-26T10:12:55.705Z,65.60
2018-11-26T10:15:27.520Z,72.83
2018-11-26T10:17:58.999Z,60.17
2018-11-26T10:20:29.091Z,67.50
2018-11-26T10:22:59.269Z,54.80
2018-11-26T10:25:29.597Z,64.07
2018-11-26T10:27:59.806Z,62.50
2018-11-26T10:30:30.775Z,62.30
2018-11-26T10:33:01.011Z,64.03
2018-11-26T10:35:31.505Z,65.30
2018-11-26T10:38:01.587Z,70.43
2018-11-26T10:40:31.940Z,77.43
2018-11-26T10:43:03.429Z,64.70
2018-11-26T10:45:33.516Z,53.73
2018-11-26T10:48:03.964Z,56.93
2018-11-26T10:50:34.200Z,68.47
2018-11-26T10:53:04.774Z,63.03
2018-11-26T10:55:35.824Z,58.57
2018-11-26T10:58:06.209Z,64.40
2018-11-26T11:00:42.259Z,65.77
2018-11-26T11:03:12.816Z,68.23
2018-11-26T11:05:43.137Z,62.00
2018-11-26T11:08:14.250Z,56.80
2018-11-26T11:10:45.123Z,59.70
2018-11-26T11:13:15.479Z,61.80
2018-11-26T11:15:46.205Z,69.13
2018-11-26T11:18:16.465Z,61.73
2018-11-26T11:20:46.633Z,58.50
2018-11-26T11:23:16.887Z,50.90
2018-11-26T11:25:47.093Z,48.47
2018-11-26T11:28:19.315Z,50.03
2018-11-26T11:30:49.561Z,57.20
2018-11-26T11:35:49.695Z,54.80
2018-11-26T11:38:19.918Z,51.23
2018-11-26T11:40:50.076Z,51.57
2018-11-26T11:43:20.421Z,45.27
2018-11-26T11:45:50.481Z,50.00
2018-11-26T11:48:21.270Z,47.70
2018-11-26T11:50:51.969Z,50.50
2018-11-26T11:53:22.625Z,49.73
2018-11-26T11:55:55.763Z,51.87
2018-11-26T11:58:27.055Z,44.20
2018-11-26T12:00:57.544Z,46.90
2018-11-26T12:03:27.718Z,45.70
2018-11-26T12:05:58.038Z,63.67
2018-11-26T12:08:28.497Z,44.33
2018-11-26T12:10:58.907Z,41.17
2018-11-26T12:13:29.160Z,43.20
2018-11-26T12:15:59.346Z,44.53
2018-11-26T12:18:29.638Z,40.70
2018-11-26T12:20:59.849Z,45.20
2018-11-26T12:23:31.211Z,41.77
2018-11-26T12:26:04.703Z,38.93
2018-11-26T12:28:38.718Z,40.13
2018-11-26T12:31:12.853Z,43.00
2018-11-26T12:33:46.307Z,50.20
2018-11-26T12:36:20.227Z,44.77
2018-11-26T12:38:50.488Z,54.07
2018-11-26T12:41:20.753Z,45.07
2018-11-26T12:43:51.074Z,51.33
2018-11-26T12:46:21.581Z,43.87
2018-11-26T12:48:51.940Z,47.47
2018-11-26T12:51:22.278Z,43.40
2018-11-26T12:53:52.601Z,43.10
2018-11-26T12:56:22.936Z,46.70
2018-11-26T12:58:53.128Z,53.87
2018-11-26T13:01:23.429Z,46.83
2018-11-26T13:03:53.872Z,43.40
2018-11-26T13:06:24.165Z,39.77
2018-11-26T13:08:54.384Z,42.30
2018-11-26T13:11:25.012Z,37.63
2018-11-26T13:13:55.434Z,37.63
2018-11-26T13:16:25.520Z,47.10
2018-11-26T13:18:55.954Z,51.73
2018-11-26T13:21:26.326Z,49.90
2018-11-26T13:23:56.745Z,42.87
2018-11-26T13:26:27.780Z,45.37
2018-11-26T13:28:58.215Z,60.70
2018-11-26T13:31:28.306Z,52.83
2018-11-26T13:33:58.606Z,41.90
2018-11-26T13:36:29.663Z,46.07
2018-11-26T13:38:59.746Z,42.77
2018-11-26T13:41:29.925Z,63.53
2018-11-26T13:44:00.353Z,54.50
2018-11-26T13:46:30.683Z,49.13
2018-11-26T13:49:01.069Z,46.80
2018-11-26T13:51:31.488Z,65.07
2018-11-26T13:54:01.626Z,38.33
2018-11-26T13:56:31.843Z,29.97
2018-11-26T13:59:02.137Z,27.43
2018-11-26T14:01:32.733Z,29.20
2018-11-26T14:04:03.155Z,32.53
2018-11-26T14:06:34.030Z,32.93
2018-11-26T14:09:05.140Z,28.10
2018-11-26T14:11:35.534Z,32.20
2018-11-26T14:14:05.757Z,38.20
2018-11-26T14:16:35.872Z,92.57
2018-11-26T14:19:07.326Z,52.03
2018-11-26T14:21:37.220Z,35.20
2018-11-26T14:24:07.948Z,30.40
2018-11-26T14:26:38.142Z,28.93
2018-11-26T14:29:08.647Z,28.80
2018-11-26T14:31:38.918Z,30.10
2018-11-26T14:34:09.236Z,30.53
2018-11-26T14:36:39.432Z,34.67
2018-11-26T14:39:11.157Z,39.10
2018-11-26T14:41:41.926Z,36.57
2018-11-26T14:44:12.515Z,38.70
2018-11-26T14:46:43.543Z,42.57
2018-11-26T14:49:14.580Z,39.53
2018-11-26T14:51:45.172Z,38.30
2018-11-26T14:54:16.331Z,41.43
2018-11-26T14:56:47.002Z,40.70
2018-11-26T14:59:17.340Z,40.27
2018-11-26T15:01:48.311Z,39.00
2018-11-26T15:04:19.816Z,38.50
2018-11-26T15:06:50.217Z,44.00
2018-11-26T15:09:20.510Z,40.27
2018-11-26T15:11:51.539Z,42.70
2018-11-26T15:14:22.026Z,45.07
2018-11-26T15:16:52.681Z,41.47
2018-11-26T15:19:24.385Z,46.40
2018-11-26T15:21:55.632Z,50.17
2018-11-26T15:24:25.906Z,52.23
2018-11-26T15:26:55.634Z,58.20
2018-11-26T15:29:25.854Z,46.17
2018-11-26T15:31:56.278Z,46.20
2018-11-26T15:34:25.981Z,39.13
2018-11-26T15:36:57.975Z,40.30
2018-11-26T15:39:27.841Z,42.00
2018-11-26T15:41:57.634Z,51.30
2018-11-26T15:44:27.258Z,49.03
2018-11-26T15:46:57.111Z,44.83
2018-11-26T15:49:27.709Z,48.60
2018-11-26T15:51:57.476Z,53.23
2018-11-26T15:54:27.239Z,52.00
2018-11-26T15:56:57.078Z,55.43
2018-11-26T15:59:26.633Z,48.53
2018-11-26T16:01:56.696Z,57.97
2018-11-26T16:04:28.458Z,45.70
2018-11-26T16:06:58.576Z,43.57
2018-11-26T16:09:28.957Z,46.27
2018-11-26T16:11:59.168Z,67.57
2018-11-26T16:14:29.149Z,67.87
2018-11-26T16:16:58.948Z,62.23
2018-11-26T16:19:28.741Z,68.00
2018-11-26T16:21:58.959Z,60.17
2018-11-26T16:24:28.927Z,61.07
2018-11-26T16:26:59.361Z,57.67
2018-11-26T16:29:29.766Z,62.90
2018-11-26T16:32:00.472Z,60.97
2018-11-26T16:34:30.998Z,49.83
2018-11-26T16:37:01.541Z,65.67
2018-11-26T16:39:31.987Z,51.30
2018-11-26T16:42:01.995Z,59.60
2018-11-26T16:44:31.792Z,49.70
2018-11-26T16:47:01.944Z,37.10
2018-11-26T16:49:31.539Z,37.57
2018-11-26T16:52:01.429Z,34.20
2018-11-26T16:54:31.302Z,39.20
2018-11-26T16:57:01.120Z,34.77
2018-11-26T16:59:31.391Z,41.27
2018-11-26T17:02:01.468Z,38.77
2018-11-26T17:04:31.721Z,41.93
2018-11-26T17:07:02.746Z,38.37
2018-11-26T17:09:32.884Z,40.13
2018-11-26T17:12:03.355Z,45.03
2018-11-26T17:14:34.847Z,53.33
2018-11-26T17:17:06.234Z,68.33
2018-11-26T17:19:36.624Z,68.63
2018-11-26T17:22:07.837Z,78.20
2018-11-26T17:24:37.658Z,69.97
2018-11-26T17:27:08.375Z,71.43
2018-11-26T17:29:39.790Z,69.00
2018-11-26T17:32:09.748Z,69.17
2018-11-26T17:34:39.563Z,57.30
2018-11-26T17:37:09.404Z,51.20
2018-11-26T17:39:39.257Z,47.87
2018-11-26T17:42:11.309Z,44.60
2018-11-26T17:44:41.556Z,41.40
2018-11-26T17:47:12.190Z,42.03
2018-11-26T17:49:42.173Z,38.80
2018-11-26T17:52:13.141Z,41.40
2018-11-26T17:54:43.681Z,35.87
2018-11-26T17:57:13.864Z,37.93
2018-11-26T17:59:44.940Z,35.33
2018-11-26T18:02:14.677Z,34.57
2018-11-26T18:04:44.910Z,32.50
2018-11-26T18:07:14.825Z,35.33
2018-11-26T18:09:45.035Z,31.00
2018-11-26T18:12:15.352Z,32.50
2018-11-26T18:14:45.849Z,31.93
2018-11-26T18:17:17.104Z,31.77
2018-11-26T18:19:47.441Z,38.60
2018-11-26T18:22:17.421Z,32.40
2018-11-26T18:24:47.989Z,34.70
2018-11-26T18:27:18.319Z,32.50
2018-11-26T18:29:48.577Z,35.23
2018-11-26T18:32:22.533Z,31.90
2018-11-26T18:34:53.126Z,36.90
2018-11-26T18:37:23.010Z,25.40
2018-11-26T18:39:52.752Z,26.77
2018-11-26T18:42:22.513Z,26.70
2018-11-26T18:44:52.474Z,26.97
2018-11-26T18:47:23.294Z,24.23
2018-11-26T18:49:53.534Z,25.47
2018-11-26T18:52:23.843Z,25.67
2018-11-26T18:55:02.050Z,26.87
2018-11-26T18:57:32.683Z,18.87
2018-11-26T19:00:14.509Z,22.77
2018-11-26T19:02:44.940Z,20.53
2018-11-26T19:05:16.001Z,29.43
2018-11-26T19:07:46.769Z,23.37
2018-11-26T19:10:22.769Z,23.70
2018-11-26T19:12:57.346Z,24.70
2018-11-26T19:15:30.267Z,24.93
2018-11-26T19:18:11.171Z,22.87
2018-11-26T19:20:41.398Z,27.37
2018-11-26T19:23:11.853Z,24.27
2018-11-26T19:25:42.033Z,26.43
2018-11-26T19:28:12.336Z,24.47
2018-11-26T19:30:42.721Z,21.80
2018-11-26T19:33:13.263Z,23.10
2018-11-26T19:35:50.601Z,23.20
2018-11-26T19:38:22.195Z,23.10
2018-11-26T19:40:56.297Z,21.90
2018-11-26T19:43:28.149Z,24.20
2018-11-26T19:46:00.124Z,30.00
2018-11-26T19:48:33.021Z,26.03
2018-11-26T19:51:03.837Z,28.60
2018-11-26T19:53:40.431Z,23.63
2018-11-26T19:56:11.149Z,24.23
2018-11-26T19:58:42.056Z,21.90
2018-11-26T20:01:12.146Z,25.30
2018-11-26T20:03:44.663Z,28.70
2018-11-26T20:06:24.448Z,31.07
2018-11-26T20:08:58.762Z,69.70
2018-11-26T20:11:33.309Z,76.07
2018-11-26T20:14:04.587Z,76.30
2018-11-26T20:16:40.788Z,97.47
2018-11-26T20:19:11.147Z,82.20
2018-11-26T20:21:44.166Z,66.77
2018-11-26T20:24:14.930Z,50.77
2018-11-26T20:26:46.910Z,36.93
2018-11-26T20:29:16.990Z,32.80
2018-11-26T20:31:47.897Z,31.47
2018-11-26T20:34:18.436Z,38.20
2018-11-26T20:36:49.411Z,27.17
2018-11-26T20:39:19.619Z,31.87
2018-11-26T20:41:50.647Z,30.30
2018-11-26T20:44:22.162Z,29.83
2018-11-26T20:46:52.378Z,33.53
2018-11-26T20:49:22.400Z,27.00
2018-11-26T20:51:52.728Z,27.97
2018-11-26T20:54:23.797Z,29.23
2018-11-26T20:56:53.643Z,27.07
2018-11-26T20:59:23.557Z,27.10
2018-11-26T21:01:53.584Z,23.47
2018-11-26T21:04:23.786Z,25.80
2018-11-26T21:06:54.566Z,29.33
2018-11-26T21:09:24.593Z,24.57
2018-11-26T21:11:54.529Z,24.23
2018-11-26T21:14:24.641Z,25.53
2018-11-26T21:16:54.565Z,25.57
2018-11-26T21:19:24.729Z,25.90
2018-11-26T21:21:54.905Z,20.93
2018-11-26T21:24:24.831Z,20.30
2018-11-26T21:26:54.856Z,21.97
2018-11-26T21:29:27.034Z,22.73
2018-11-26T21:31:57.711Z,23.97
2018-11-26T21:34:28.200Z,27.57
2018-11-26T21:36:58.459Z,22.30
2018-11-26T21:39:28.991Z,28.67
2018-11-26T21:41:59.186Z,25.20
2018-11-26T21:44:29.292Z,31.80
2018-11-26T21:46:59.374Z,25.57
2018-11-26T21:49:29.362Z,26.37
2018-11-26T21:51:59.449Z,25.77
2018-11-26T21:54:29.386Z,24.73
2018-11-26T21:56:59.407Z,20.63
2018-11-26T21:59:29.495Z,23.77
2018-11-26T22:01:59.514Z,20.73
2018-11-26T22:04:29.508Z,24.23
2018-11-26T22:07:00.428Z,19.50
2018-11-26T22:09:30.936Z,21.47
2018-11-26T22:12:04.753Z,17.27
2018-11-26T22:14:35.503Z,17.73
2018-11-26T22:17:06.127Z,18.50
2018-11-26T22:19:36.767Z,24.67
2018-11-26T22:22:07.591Z,18.10
2018-11-26T22:24:38.186Z,29.83
2018-11-26T22:27:08.872Z,22.83
2018-11-26T22:29:40.237Z,20.93
2018-11-26T22:32:12.581Z,32.00
2018-11-26T22:34:43.174Z,20.47
2018-11-26T22:37:16.370Z,23.00
2018-11-26T22:39:46.667Z,20.43
2018-11-26T22:42:16.987Z,21.23
2018-11-26T22:44:47.255Z,25.77
2018-11-26T22:47:17.617Z,27.40
2018-11-26T22:49:47.630Z,30.10
2018-11-26T22:52:19.395Z,27.30
2018-11-26T22:54:49.533Z,20.70
2018-11-26T22:57:20.710Z,31.13
2018-11-26T22:59:51.076Z,24.20
2018-11-26T23:02:21.331Z,23.17
2018-11-26T23:04:56.586Z,26.60
2018-11-26T23:07:30.510Z,21.73
2018-11-26T23:10:00.714Z,24.07
2018-11-26T23:12:31.886Z,23.70
2018-11-26T23:15:02.269Z,22.67
2018-11-26T23:17:38.039Z,24.60
2018-11-26T23:20:10.193Z,23.53
2018-11-26T23:22:40.508Z,22.00
2018-11-26T23:25:11.725Z,21.43
2018-11-26T23:27:42.326Z,20.43
2018-11-26T23:30:20.590Z,20.73
2018-11-26T23:33:03.497Z,19.50
2018-11-26T23:35:33.528Z,19.43
2018-11-26T23:38:03.430Z,22.70
2018-11-26T23:40:35.629Z,25.40
2018-11-26T23:43:05.455Z,22.27
2018-11-26T23:45:35.228Z,18.93
2018-11-26T23:48:05.152Z,19.43
2018-11-26T23:50:36.986Z,23.47
2018-11-26T23:53:07.737Z,18.93
2018-11-26T23:55:37.419Z,17.63
2018-11-26T23:58:07.408Z,17.43
